Time;durP1;ratioP1;P1;durP2;ratioP2;P2;SDS_P1;SDS_P2;PMS_P1;PMS_P2;Temp;Humidity;BMP_temperature;BMP_pressure;BME280_temperature;BME280_humidity;BME280_pressure;Samples;Min_cycle;Max_cycle;Signal;HPM_P1;HPM_P2
2021/06/09 00:03:58;;;;;;;;;;;15.80;99.90;;;14.63;89.05;96089.84;10362971;28;1980;-81
2021/06/09 00:09:00;;;;;;;;;;;15.80;99.90;;;14.57;89.01;96084.53;10384709;28;2101;-81
2021/06/09 00:14:02;;;;;;;;;;;15.70;99.90;;;14.51;89.63;96085.69;10375143;28;1579;-80
2021/06/09 00:19:04;;;;;;;;;;;15.70;99.90;;;14.45;89.99;96077.91;10366299;28;2137;-81
2021/06/09 00:24:07;;;;;;;;;;;15.60;99.90;;;14.41;90.58;96077.69;10354506;28;2127;-80
2021/06/09 00:29:09;;;;;;;;;;;15.60;99.90;;;14.33;90.85;96070.22;10367302;28;2035;-81
2021/06/09 00:34:12;;;;;;;;;;;15.50;99.90;;;14.27;91.07;96072.19;10371452;28;2076;-81
2021/06/09 00:39:14;;;;;;;;;;;15.50;99.90;;;14.32;90.79;96079.44;10370744;28;1214;-80
2021/06/09 00:44:17;;;;;;;;;;;15.50;99.90;;;14.26;91.29;96072.47;10367220;28;1966;-80
2021/06/09 00:49:19;;;;;;;;;;;15.40;99.90;;;14.21;91.66;96072.53;10394309;28;2178;-81
2021/06/09 00:54:22;;;;;;;;;;;15.30;99.90;;;14.15;91.89;96070.97;10375359;28;2144;-82
2021/06/09 00:59:25;;;;;;;;;;;15.30;99.90;;;14.11;91.78;96069.94;10383113;28;2116;-80
2021/06/09 01:04:27;;;;;;;;;;;15.30;99.90;;;14.08;92.22;96076.75;10380755;28;2214;-80
2021/06/09 01:09:30;;;;;;;;;;;15.20;99.90;;;14.02;92.75;96078.69;10385375;28;1711;-80
2021/06/09 01:14:32;;;;;;;;;;;15.20;99.90;;;14.04;92.72;96071.09;10380656;28;1879;-81
2021/06/09 01:19:35;;;;;;;;;;;15.10;99.90;;;13.95;93.27;96072.84;10421493;28;2051;-80
2021/06/09 01:24:37;;;;;;;;;;;15.10;99.90;;;13.92;93.07;96075.28;10361231;28;2097;-79
2021/06/09 01:29:40;;;;;;;;;;;15.10;99.90;;;13.92;93.17;96078.00;10372603;28;1720;-81
2021/06/09 01:34:43;;;;;;;;;;;15.10;99.90;;;13.89;93.52;96073.97;10360259;28;1454;-80
2021/06/09 01:39:45;;;;;;;;;;;15.00;99.90;;;13.82;93.34;96084.31;10366460;28;1711;-81
2021/06/09 01:44:48;;;;;;;;;;;15.00;99.90;;;13.80;93.41;96072.97;10371482;28;1896;-81
2021/06/09 01:49:50;;;;;;;;;;;15.00;99.90;;;13.81;94.21;96074.63;10373208;28;2066;-80
2021/06/09 01:54:53;;;;;;;;;;;15.00;99.90;;;13.86;94.33;96069.13;10376436;28;1340;-81
2021/06/09 01:59:56;;;;;;;;;;;15.00;99.90;;;13.81;93.84;96073.81;10366386;28;1775;-80
2021/06/09 02:04:58;;;;;;;;;;;15.00;99.90;;;13.74;93.96;96068.72;10373411;28;2409;-81
2021/06/09 02:10:00;;;;;;;;;;;14.90;99.90;;;13.73;94.28;96067.91;10373889;28;2093;-81
2021/06/09 02:15:03;;;;;;;;;;;14.90;99.90;;;13.76;94.01;96066.56;10363596;28;1683;-81
2021/06/09 02:20:06;;;;;;;;;;;14.90;99.90;;;13.80;93.81;96064.88;10372320;28;2026;-80
2021/06/09 02:25:08;;;;;;;;;;;14.90;99.90;;;13.73;93.88;96067.13;10366927;28;2118;-81
2021/06/09 02:30:11;;;;;;;;;;;14.90;99.90;;;13.71;94.32;96062.00;10365117;28;2168;-81
2021/06/09 02:35:13;;;;;;;;;;;14.80;99.90;;;13.67;94.38;96054.75;10363774;28;1328;-79
2021/06/09 02:40:16;;;;;;;;;;;14.80;99.90;;;13.64;95.24;96049.94;10388629;28;1800;-80
2021/06/09 02:45:18;;;;;;;;;;;14.80;99.90;;;13.70;94.91;96056.91;10371111;28;2072;-80
2021/06/09 02:50:21;;;;;;;;;;;14.80;99.90;;;13.64;95.13;96055.34;10367621;28;1534;-80
2021/06/09 02:55:23;;;;;;;;;;;14.80;99.90;;;13.66;95.60;96058.53;10369369;28;2208;-80
2021/06/09 03:00:26;;;;;;;;;;;14.70;99.90;;;13.58;94.64;96064.56;10360849;28;1216;-80
2021/06/09 03:05:29;;;;;;;;;;;14.70;99.90;;;13.50;95.49;96064.09;10364866;28;1918;-79
2021/06/09 03:10:31;;;;;;;;;;;14.70;99.90;;;13.57;95.83;96076.47;10358075;28;1487;-84
2021/06/09 03:15:34;;;;;;;;;;;14.70;99.90;;;13.59;95.22;96071.59;10401266;28;1775;-79
2021/06/09 03:20:36;;;;;;;;;;;14.70;99.90;;;13.67;94.71;96060.16;10360320;28;2165;-79
2021/06/09 03:25:39;;;;;;;;;;;14.70;99.90;;;13.65;94.71;96062.34;10385971;28;1915;-80
2021/06/09 03:30:41;;;;;;;;;;;14.70;99.90;;;13.63;94.97;96059.13;10368584;28;1261;-79
2021/06/09 03:35:43;;;;;;;;;;;14.70;99.90;;;13.90;93.98;96053.16;10372903;28;2035;-79
2021/06/09 03:40:47;;;;;;;;;;;14.80;99.90;;;14.09;93.29;96066.72;10376263;28;1464;-78
2021/06/09 03:45:50;;;;;;;;;;;15.00;99.90;;;14.19;92.43;96055.81;10365077;28;2353;-81
2021/06/09 03:50:52;;;;;;;;;;;15.10;99.90;;;14.35;91.26;96070.72;10363701;28;2046;-80
2021/06/09 03:55:54;;;;;;;;;;;15.20;99.90;;;14.37;91.30;96073.94;10375494;28;2193;-82
2021/06/09 04:00:57;;;;;;;;;;;15.30;99.90;;;14.35;90.53;96076.13;10387016;28;1571;-81
2021/06/09 04:06:00;;;;;;;;;;;15.30;99.90;;;14.40;90.33;96080.69;10362572;28;1968;-80
2021/06/09 04:11:02;;;;;;;;;;;15.30;99.90;;;14.36;90.54;96071.53;10373951;28;2011;-79
2021/06/09 04:16:25;;;;;;;;;;;15.30;99.90;;;14.66;89.87;96081.19;10376791;28;2054;-82
2021/06/09 04:21:53;;;;;;;;;;;15.40;99.90;;;15.19;86.48;96073.59;10396050;28;2027;-80
2021/06/09 04:27:15;;;;;;;;;;;15.70;99.90;;;15.40;85.58;96065.97;10369227;28;1891;-81
2021/06/09 04:32:38;;;;;;;;;;;16.00;99.90;;;15.76;83.82;96062.66;10362047;28;1128;-79
2021/06/09 04:38:25;;;;;;;;;;;16.20;99.90;;;16.01;81.73;96064.06;10375045;28;1682;-80
2021/06/09 04:49:52;;;;;;;;;;;16.80;99.90;;;16.02;81.87;96071.09;10362915;28;1127;-82
2021/06/09 04:55:14;;;;;;;;;;;16.80;99.90;;;16.24;80.69;96070.41;10370510;28;2119;-81
2021/06/09 05:00:38;;;;;;;;;;;17.00;99.90;;;16.15;81.55;96071.09;10370616;28;2090;-80
2021/06/09 05:06:15;;;;;;;;;;;17.00;99.90;;;16.61;79.91;96074.78;10376855;28;1973;-79
2021/06/09 05:11:38;;;;;;;;;;;17.10;99.90;;;17.23;77.13;96070.38;10365496;28;1169;-81
2021/06/09 05:17:01;;;;;;;;;;;17.50;99.90;;;17.41;75.90;96078.66;10382036;28;2015;-79
2021/06/09 05:22:40;;;;;;;;;;;17.90;99.90;;;17.89;73.62;96064.44;10377514;28;2133;-80
2021/06/09 05:28:01;;;;;;;;;;;18.20;99.90;;;17.93;73.59;96068.13;10372651;28;1334;-80
2021/06/09 05:33:24;;;;;;;;;;;18.40;99.90;;;18.14;73.03;96062.94;10371114;28;2080;-80
2021/06/09 05:39:11;;;;;;;;;;;18.60;99.90;;;18.45;71.79;96065.56;10367283;28;1995;-79
2021/06/09 05:44:19;;;;;;;;;;;18.90;99.90;;;18.89;69.52;96057.22;10368496;28;2112;-78
2021/06/09 05:49:22;;;;;;;;;;;19.10;99.90;;;18.94;69.48;96061.69;10375982;28;2190;-81
2021/06/09 05:54:25;;;;;;;;;;;19.30;99.90;;;18.98;69.38;96061.84;10380934;28;2109;-78
2021/06/09 05:59:47;;;;;;;;;;;19.50;99.90;;;19.15;69.20;96056.41;10372434;28;1971;-83
2021/06/09 06:04:51;;;;;;;;;;;19.70;99.90;;;19.38;67.49;96055.09;10375154;28;1993;-81
2021/06/09 06:09:54;;;;;;;;;;;19.90;99.90;;;19.12;69.88;96068.72;10383407;28;1351;-80
2021/06/09 06:15:06;;;;;;;;;;;19.90;99.90;;;19.26;68.93;96057.66;10368217;28;1979;-80
2021/06/09 06:20:09;;;;;;;;;;;19.80;99.90;;;19.83;66.44;96051.97;10369684;28;2184;-79
2021/06/09 06:25:11;;;;;;;;;;;20.20;99.90;;;19.53;66.96;96063.88;10379598;28;1914;-82
2021/06/09 06:30:16;;;;;;;;;;;20.30;99.90;;;19.82;66.41;96058.56;10376690;28;2099;-82
2021/06/09 06:35:18;;;;;;;;;;;20.40;99.90;;;19.65;65.80;96066.78;10362899;28;2328;-83
2021/06/09 06:40:20;;;;;;;;;;;20.50;99.90;;;20.21;65.12;96062.91;10382378;28;2191;-80
2021/06/09 06:45:22;;;;;;;;;;;20.70;99.90;;;20.67;63.30;96071.34;10374070;28;1860;-82
2021/06/09 06:50:25;;;;;;;;;;;21.00;99.90;;;20.22;63.63;96067.22;10385933;28;2018;-82
2021/06/09 06:55:27;;;;;;;;;;;20.90;99.90;;;20.23;62.73;96074.31;10406101;28;1621;-80
2021/06/09 07:00:29;;;;;;;;;;;20.90;99.90;;;20.69;62.48;96074.56;10365824;28;1437;-81
2021/06/09 07:05:33;;;;;;;;;;;21.10;99.90;;;20.60;62.66;96077.34;10370667;28;2014;-80
2021/06/09 07:10:35;;;;;;;;;;;21.20;99.90;;;21.34;60.34;96078.63;10387935;28;1590;-81
2021/06/09 07:15:39;;;;;;;;;;;21.60;99.90;;;21.78;59.02;96073.53;10382276;28;1737;-80
2021/06/09 07:20:42;;;;;;;;;;;21.90;99.90;;;21.44;59.99;96075.47;10383963;28;1427;-84
2021/06/09 07:25:44;;;;;;;;;;;22.00;99.90;;;21.20;60.64;96080.81;10402713;28;1962;-86
2021/06/09 07:30:47;;;;;;;;;;;21.90;99.90;;;21.27;61.34;96078.31;10386941;28;1906;-86
2021/06/09 07:35:49;;;;;;;;;;;21.80;99.90;;;21.50;60.12;96084.25;10418240;28;1826;-84
2021/06/09 07:40:51;;;;;;;;;;;22.00;99.90;;;21.36;61.31;96087.28;10401139;28;1961;-82
2021/06/09 07:45:54;;;;;;;;;;;21.90;99.90;;;21.34;61.22;96089.56;10388734;28;1887;-86
2021/06/09 07:50:56;;;;;;;;;;;22.10;99.90;;;21.27;61.00;96095.53;10404640;28;1765;-83
2021/06/09 07:55:59;;;;;;;;;;;22.10;99.90;;;21.49;59.70;96091.66;10407767;28;1539;-82
2021/06/09 08:01:01;;;;;;;;;;;22.20;99.90;;;21.82;59.16;96099.06;10386620;28;1733;-82
2021/06/09 08:06:04;;;;;;;;;;;22.30;99.90;;;21.74;59.82;96099.97;10390834;28;2060;-82
2021/06/09 08:11:08;;;;;;;;;;;22.20;99.90;;;21.69;60.12;96100.16;10407124;28;2113;-83
2021/06/09 08:16:10;;;;;;;;;;;22.50;99.90;;;22.52;57.36;96110.03;10380075;28;1469;-84
2021/06/09 08:21:12;;;;;;;;;;;22.90;99.90;;;22.29;56.89;96112.44;10392320;28;2107;-84
2021/06/09 08:26:16;;;;;;;;;;;23.10;99.90;;;22.96;56.08;96108.34;10384724;28;1965;-85
2021/06/09 08:31:19;;;;;;;;;;;23.30;99.90;;;22.52;55.11;96110.88;10400895;28;1768;-82
2021/06/09 08:36:34;;;;;;;;;;;23.40;99.90;;;22.45;55.06;96113.34;10385852;28;2220;-82
2021/06/09 08:41:39;;;;;;;;;;;23.20;99.90;;;22.86;55.46;96115.09;10381304;28;2015;-83
2021/06/09 08:46:43;;;;;;;;;;;23.30;99.90;;;22.75;56.98;96113.13;10384831;28;2061;-82
2021/06/09 08:51:56;;;;;;;;;;;23.40;99.90;;;22.96;54.69;96110.28;10373837;28;1990;-83
2021/06/09 08:56:58;;;;;;;;;;;23.60;99.90;;;23.22;53.76;96110.69;10385140;28;1991;-82
2021/06/09 09:02:01;;;;;;;;;;;23.60;99.90;;;23.44;53.91;96106.66;10378527;28;1345;-83
2021/06/09 09:07:03;;;;;;;;;;;24.00;99.90;;;23.62;52.58;96112.69;10377176;28;1954;-81
2021/06/09 09:12:05;;;;;;;;;;;24.40;99.90;;;22.95;54.84;96109.50;10387781;28;2272;-81
2021/06/09 09:17:08;;;;;;;;;;;24.00;99.90;;;22.97;53.40;96106.41;10380556;28;2013;-82
2021/06/09 09:22:10;;;;;;;;;;;24.00;99.90;;;23.65;52.64;96112.75;10370879;28;1926;-82
2021/06/09 09:27:16;;;;;;;;;;;24.10;99.90;;;24.04;51.03;96095.75;10381299;28;1899;-82
2021/06/09 09:32:18;;;;;;;;;;;24.40;99.90;;;24.48;50.50;96096.50;10384140;28;1150;-82
2021/06/09 09:37:20;;;;;;;;;;;25.00;99.90;;;25.23;49.57;96096.31;10396750;28;1471;-82
2021/06/09 09:42:22;;;;;;;;;;;25.60;99.90;;;24.73;49.29;96117.16;10367655;28;1994;-82
2021/06/09 09:47:25;;;;;;;;;;;25.60;99.90;;;24.99;49.00;96104.78;10384593;28;1970;-80
2021/06/09 09:52:27;;;;;;;;;;;25.50;99.90;;;24.85;48.35;96102.50;10383812;28;1935;-82
2021/06/09 10:03:17;;;;;;;;;;;25.30;99.90;;;23.95;49.16;96112.41;10380359;28;1915;-80
2021/06/09 10:08:20;;;;;;;;;;;25.10;99.90;;;23.63;49.85;96109.56;10379744;28;2097;-81
2021/06/09 10:13:22;;;;;;;;;;;24.70;99.90;;;24.15;49.73;96102.31;10370814;28;2031;-83
2021/06/09 10:18:25;;;;;;;;;;;24.80;99.90;;;24.32;49.75;96102.00;10381256;28;2188;-82
2021/06/09 10:23:27;;;;;;;;;;;25.00;99.90;;;24.73;47.39;96089.66;10380612;28;2109;-81
2021/06/09 10:28:29;;;;;;;;;;;25.30;99.90;;;24.63;46.81;96095.72;10379368;28;2185;-83
2021/06/09 10:33:33;;;;;;;;;;;25.30;99.90;;;24.90;47.15;96090.44;10397387;28;2100;-82
2021/06/09 10:38:35;;;;;;;;;;;25.70;99.90;;;25.14;44.48;96092.19;10375229;28;2118;-84
2021/06/09 10:43:38;;;;;;;;;;;26.00;99.90;;;26.20;42.45;96065.97;10381459;28;1961;-83
2021/06/09 10:48:49;;;;;;;;;;;27.40;99.90;;;27.27;37.71;96064.88;10384767;28;1953;-83
2021/06/09 10:54:02;;;;;;;;;;;28.40;98.10;;;26.56;41.56;96061.88;10388040;28;1886;-84
2021/06/09 10:59:24;;;;;;;;;;;29.00;96.80;;;25.22;43.96;96045.22;10415317;28;1702;-83
2021/06/09 11:04:38;;;;;;;;;;;27.40;97.20;;;24.13;44.59;96045.00;10382810;28;1887;-85
2021/06/09 11:10:00;;;;;;;;;;;;;;;23.96;44.50;96035.16;10376919;28;1794;-82
2021/06/09 11:15:30;;;;;;;;;;;25.20;98.90;;;24.50;44.26;96031.03;10379515;28;2033;-83
2021/06/09 11:20:50;;;;;;;;;;;25.30;99.70;;;26.13;40.93;96022.56;10385022;28;1651;-82
2021/06/09 11:31:33;;;;;;;;;;;28.00;94.20;;;26.72;38.11;95998.31;10380091;28;1737;-83
2021/06/09 11:36:38;;;;;;;;;;;28.10;90.70;;;26.69;37.38;95985.25;10377653;28;1677;-80
2021/06/09 11:41:43;;;;;;;;;;;27.80;88.40;;;26.38;38.61;95989.09;10387184;28;1641;-81
2021/06/09 11:46:56;;;;;;;;;;;27.60;88.80;;;27.13;34.45;95985.47;10390744;28;1910;-82
2021/06/09 11:51:59;;;;;;;;;;;27.60;84.10;;;27.12;33.30;95983.91;10388737;28;2215;-83
2021/06/09 11:57:03;;;;;;;;;;;27.90;80.80;;;26.57;37.87;95980.75;10383898;28;2227;-83
2021/06/09 12:02:08;;;;;;;;;;;28.00;84.40;;;25.86;38.39;95983.16;10391042;28;2081;-83
2021/06/09 12:07:14;;;;;;;;;;;27.10;84.50;;;25.32;38.69;95980.53;10393713;28;2139;-81
2021/06/09 12:12:30;;;;;;;;;;;26.60;83.70;;;25.34;38.23;95957.03;10394600;28;1808;-84
2021/06/09 12:23:20;;;;;;;;;;;26.40;83.80;;;25.43;38.40;95947.72;10632365;27;2036;-83
2021/06/09 12:33:50;;;;;;;;;;;26.50;84.30;;;25.91;38.45;95949.00;10525277;28;1703;-81
2021/06/09 12:38:58;;;;;;;;;;;26.70;84.00;;;26.70;35.73;95950.22;10539807;28;1894;-80
2021/06/09 12:44:15;;;;;;;;;;;27.20;81.40;;;27.32;35.55;95948.66;10538839;28;2063;-85
2021/06/09 12:49:30;;;;;;;;;;;27.70;81.10;;;27.69;35.97;95950.63;10573016;28;2042;-85
2021/06/09 12:54:38;;;;;;;;;;;27.90;81.80;;;27.20;36.28;95959.94;10530471;28;1715;-83
2021/06/09 13:05:11;;;;;;;;;;;27.70;77.20;;;25.93;36.36;95946.69;10573206;27;2081;-82
2021/06/09 13:10:25;;;;;;;;;;;27.30;77.60;;;24.38;43.44;95979.72;10535375;28;1683;-84
2021/06/09 13:20:57;;;;;;;;;;;25.10;92.00;;;22.32;52.77;95977.56;10552275;28;1977;-82
2021/06/09 13:26:00;;;;;;;;;;;23.80;96.00;;;22.09;53.50;95978.03;10507037;28;1954;-83
2021/06/09 13:31:02;;;;;;;;;;;23.30;98.60;;;21.40;57.86;96000.72;10521343;28;1898;-83
2021/06/09 13:36:05;;;;;;;;;;;22.70;99.90;;;20.87;57.46;95998.78;10496455;28;1891;-87
2021/06/09 13:41:07;;;;;;;;;;;22.10;99.90;;;21.08;55.84;95976.88;10545793;28;1953;-84
2021/06/09 13:46:10;;;;;;;;;;;22.00;99.90;;;21.16;54.61;95973.25;10537375;28;1712;-81
2021/06/09 13:51:12;;;;;;;;;;;22.00;99.90;;;21.06;52.82;95952.63;10501961;28;2065;-82
2021/06/09 13:56:15;;;;;;;;;;;22.00;99.90;;;21.20;52.40;95955.06;10500129;28;2008;-83
2021/06/09 14:01:17;;;;;;;;;;;21.90;99.90;;;21.33;52.19;95937.56;10500756;28;2162;-80
2021/06/09 14:06:20;;;;;;;;;;;22.10;99.90;;;21.31;54.44;95958.97;10485322;28;1774;-82
2021/06/09 14:11:25;;;;;;;;;;;22.30;99.90;;;21.17;55.09;95953.78;10480304;28;2166;-81
2021/06/09 14:16:27;;;;;;;;;;;22.20;99.90;;;21.10;55.30;95958.19;10492715;28;2061;-81
2021/06/09 14:21:29;;;;;;;;;;;22.00;99.90;;;21.18;55.46;95963.56;10480296;28;2187;-80
2021/06/09 14:26:32;;;;;;;;;;;22.10;99.90;;;21.45;54.47;95967.69;10487440;28;2158;-81
2021/06/09 14:31:34;;;;;;;;;;;22.30;99.90;;;21.76;54.31;95996.47;10517044;28;2104;-79
2021/06/09 14:36:43;;;;;;;;;;;22.50;99.90;;;21.90;53.69;96018.84;10487773;28;2094;-81
2021/06/09 14:41:47;;;;;;;;;;;22.90;99.90;;;21.41;54.28;96013.25;10483648;28;2074;-78
2021/06/09 14:47:17;;;;;;;;;;;22.60;99.90;;;21.63;52.36;96005.78;10483902;28;1712;-81
2021/06/09 14:52:28;;;;;;;;;;;22.40;99.90;;;21.50;52.67;96003.03;10503313;28;1501;-83
2021/06/09 14:57:31;;;;;;;;;;;22.30;99.90;;;21.46;52.23;96010.31;10485056;28;1695;-83
2021/06/09 15:02:33;;;;;;;;;;;22.40;99.90;;;22.16;51.02;96015.00;10518217;28;2102;-82
2021/06/09 15:07:36;;;;;;;;;;;22.80;99.90;;;23.17;47.17;96021.25;10480420;28;1914;-81
2021/06/09 15:12:39;;;;;;;;;;;23.30;99.30;;;23.18;46.17;96033.81;10481141;28;1727;-82
2021/06/09 15:17:52;;;;;;;;;;;23.80;96.50;;;22.64;47.11;96049.78;10476402;28;2035;-86
2021/06/09 15:23:07;;;;;;;;;;;23.60;95.60;;;21.68;51.66;96047.38;10474804;28;1999;-84
2021/06/09 15:28:09;;;;;;;;;;;22.90;98.90;;;22.19;51.30;96047.16;10479607;28;1479;-87
2021/06/09 15:33:14;;;;;;;;;;;22.90;99.90;;;22.60;50.01;96035.97;10495020;28;2059;-81
2021/06/09 15:38:20;;;;;;;;;;;23.20;99.90;;;22.72;49.47;96031.63;10488957;28;2023;-81
2021/06/09 15:43:38;;;;;;;;;;;23.30;99.90;;;22.33;50.72;96032.00;10493864;28;2054;-83
2021/06/09 15:48:42;;;;;;;;;;;23.40;99.30;;;22.32;50.24;96026.84;10488139;28;1839;-82
2021/06/09 15:54:13;;;;;;;;;;;23.10;99.80;;;22.79;50.02;96010.72;10520218;28;1642;-83
2021/06/09 15:59:40;;;;;;;;;;;23.40;99.90;;;23.09;49.38;96011.22;10483625;28;1997;-80
2021/06/09 16:05:11;;;;;;;;;;;23.60;99.90;;;23.66;47.56;96010.06;10483253;28;1895;-81
2021/06/09 16:15:36;;;;;;;;;;;24.40;96.60;;;23.67;47.17;96002.66;10483048;28;1832;-84
2021/06/09 16:20:52;;;;;;;;;;;24.80;95.90;;;23.42;48.34;96012.94;10496616;28;1886;-82
2021/06/09 16:25:58;;;;;;;;;;;24.70;96.20;;;23.80;47.89;96000.63;10506167;28;2078;-80
2021/06/09 16:31:26;;;;;;;;;;;24.70;97.30;;;22.93;48.91;96007.63;10539566;28;2165;-84
2021/06/09 16:36:30;;;;;;;;;;;24.40;95.90;;;23.11;48.43;96011.69;10499158;28;2077;-84
2021/06/09 16:41:35;;;;;;;;;;;24.00;96.50;;;23.03;49.15;96026.34;10498017;28;1955;-84
2021/06/09 16:46:37;;;;;;;;;;;23.90;97.60;;;22.60;50.45;96035.97;10492042;28;1746;-81
2021/06/09 16:51:45;;;;;;;;;;;23.70;98.20;;;22.59;50.50;96034.38;10489681;28;1665;-80
2021/06/09 17:02:18;;;;;;;;;;;23.40;99.00;;;22.02;53.26;96043.47;10492360;28;2015;-80
2021/06/09 17:07:21;;;;;;;;;;;23.20;99.90;;;21.10;56.35;96054.66;10502066;28;1951;-80
2021/06/09 17:12:32;;;;;;;;;;;22.50;99.90;;;20.55;58.59;96068.53;10517853;28;1971;-80
2021/06/09 17:17:38;;;;;;;;;;;21.80;99.90;;;20.41;59.28;96064.09;10488149;28;1500;-88
2021/06/09 17:22:43;;;;;;;;;;;21.50;99.90;;;20.44;59.81;96068.91;10523616;28;2023;-86
2021/06/09 17:27:45;;;;;;;;;;;21.40;99.90;;;20.26;59.92;96072.84;10482005;28;1868;-86
2021/06/09 17:32:47;;;;;;;;;;;21.40;99.90;;;20.38;59.95;96062.03;10494525;28;2057;-86
2021/06/09 17:37:50;;;;;;;;;;;21.40;99.90;;;20.39;59.87;96065.56;10490633;28;2054;-84
2021/06/09 17:42:52;;;;;;;;;;;21.30;99.90;;;20.39;60.29;96065.56;10520186;28;2077;-85
2021/06/09 17:47:57;;;;;;;;;;;21.30;99.90;;;20.27;60.37;96066.25;10463415;28;1952;-83
2021/06/09 17:53:08;;;;;;;;;;;20.10;99.90;;;20.39;60.43;96060.88;10480472;28;1574;-84
2021/06/09 17:58:13;;;;;;;;;;;21.30;99.90;;;20.31;60.17;96053.56;10488145;28;2055;-85
2021/06/09 18:03:17;;;;;;;;;;;21.30;99.90;;;20.30;60.37;96057.41;10500179;28;1894;-83
2021/06/09 18:08:20;;;;;;;;;;;21.30;99.90;;;20.34;60.49;96057.53;10534812;28;2049;-84
2021/06/09 18:13:31;;;;;;;;;;;21.30;99.90;;;20.24;61.32;96059.53;10497538;28;1486;-85
2021/06/09 18:18:39;;;;;;;;;;;21.30;99.90;;;20.01;64.07;96065.56;10547174;28;1370;-83
2021/06/09 18:23:42;;;;;;;;;;;21.10;99.90;;;19.84;67.15;96083.56;10502555;28;2062;-84
2021/06/09 18:28:45;;;;;;;;;;;21.00;99.90;;;19.68;69.38;96085.22;10540291;28;1410;-84
2021/06/09 18:33:50;;;;;;;;;;;21.20;99.90;;;19.61;69.82;96091.19;10505603;28;1155;-86
2021/06/09 18:39:07;;;;;;;;;;;20.70;99.90;;;19.62;68.06;96086.53;10501361;28;2066;-83
2021/06/09 18:49:42;;;;;;;;;;;20.60;99.90;;;19.25;67.79;96080.59;10495397;28;2142;-84
2021/06/09 18:54:57;;;;;;;;;;;20.40;99.90;;;19.06;67.23;96088.28;10494731;28;2071;-85
2021/06/09 19:00:00;;;;;;;;;;;20.20;99.90;;;18.96;67.29;96097.59;10473100;28;2223;-85
2021/06/09 19:05:02;;;;;;;;;;;20.10;99.90;;;18.82;67.29;96113.25;10489541;28;2121;-86
2021/06/09 19:10:07;;;;;;;;;;;19.90;99.90;;;18.83;67.47;96118.41;10487526;28;2220;-85
2021/06/09 19:15:11;;;;;;;;;;;19.80;99.90;;;19.01;66.21;96126.59;10477650;28;2418;-86
2021/06/09 19:20:20;;;;;;;;;;;19.90;99.90;;;18.93;66.36;96132.81;10480066;28;2132;-86
2021/06/09 19:25:23;;;;;;;;;;;19.90;99.90;;;18.95;66.50;96141.47;10481979;28;2142;-86
2021/06/09 19:30:26;;;;;;;;;;;19.90;99.90;;;18.88;66.51;96140.03;10489337;28;2075;-86
2021/06/09 19:35:29;;;;;;;;;;;19.90;99.90;;;18.86;65.54;96147.72;10486056;28;2265;-86
2021/06/09 19:40:32;;;;;;;;;;;19.90;99.90;;;18.90;65.53;96145.97;10476925;28;2239;-86
2021/06/09 19:45:35;;;;;;;;;;;19.90;99.90;;;18.73;65.90;96154.09;10470528;28;2144;-87
2021/06/09 19:50:37;;;;;;;;;;;19.70;99.90;;;18.65;66.61;96154.84;10465489;28;2320;-87
2021/06/09 19:55:41;;;;;;;;;;;19.60;99.90;;;18.54;66.61;96154.31;10468659;28;2560;-86
2021/06/09 20:00:44;;;;;;;;;;;19.60;99.90;;;18.52;67.10;96158.50;10496528;28;2329;-87
2021/06/09 20:06:22;;;;;;;;;;;19.50;99.90;;;18.52;67.31;96164.72;10458796;28;2294;-85
2021/06/09 20:11:35;;;;;;;;;;;19.40;99.90;;;18.61;66.91;96160.09;10523206;28;1289;-87
2021/06/09 20:16:38;;;;;;;;;;;19.50;99.90;;;18.63;66.80;96159.78;10641863;22;3544;-87
2021/06/09 20:21:44;;;;;;;;;;;19.50;99.90;;;18.54;66.52;96164.41;10579278;28;2101;-86
2021/06/09 20:32:28;;;;;;;;;;;19.50;99.90;;;18.42;67.75;96175.09;10550281;28;2109;-88
2021/06/09 20:37:31;;;;;;;;;;;19.40;99.90;;;18.45;67.79;96178.00;10548633;28;2030;-87
2021/06/09 20:42:34;;;;;;;;;;;19.40;99.90;;;18.33;68.69;96167.69;10543916;28;2250;-85
2021/06/09 20:47:37;;;;;;;;;;;19.30;99.90;;;18.17;69.30;96174.66;10552435;28;2044;-85
2021/06/09 20:52:39;;;;;;;;;;;19.20;99.90;;;18.01;70.00;96166.09;10568171;28;2017;-86
2021/06/09 20:57:41;;;;;;;;;;;19.10;99.90;;;17.84;71.38;96165.97;10560553;28;2280;-85
2021/06/09 21:02:44;;;;;;;;;;;19.00;99.90;;;17.69;72.29;96171.78;10572662;28;2088;-86
2021/06/09 21:07:47;;;;;;;;;;;18.90;99.90;;;17.64;72.71;96172.69;10565282;28;2117;-86
2021/06/09 21:12:49;;;;;;;;;;;18.70;99.90;;;17.68;72.65;96175.56;10550945;28;2435;-85
2021/06/09 21:17:52;;;;;;;;;;;18.70;99.90;;;17.75;71.82;96179.53;10562916;28;2097;-85
2021/06/09 21:22:55;;;;;;;;;;;18.70;99.90;;;17.67;72.50;96166.63;10545758;28;1964;-87
2021/06/09 21:27:57;;;;;;;;;;;18.70;99.90;;;17.63;72.69;96168.38;10564423;28;1716;-87
2021/06/09 21:33:00;;;;;;;;;;;18.70;99.90;;;17.57;73.20;96161.44;10556371;28;2019;-87
2021/06/09 21:38:02;;;;;;;;;;;18.60;99.90;;;17.60;73.24;96155.38;10559753;28;1263;-86
2021/06/09 21:43:05;;;;;;;;;;;18.60;99.90;;;17.52;73.20;96156.13;10550154;28;2051;-83
2021/06/09 21:48:07;;;;;;;;;;;18.60;99.90;;;17.44;73.64;96151.44;10554525;28;1390;-85
2021/06/09 21:53:12;;;;;;;;;;;18.50;99.90;;;17.38;73.85;96147.22;10552538;28;1752;-85
2021/06/09 21:58:15;;;;;;;;;;;18.40;99.90;;;17.29;74.01;96145.22;10553018;28;1896;-86
2021/06/09 22:03:17;;;;;;;;;;;18.30;99.90;;;17.18;74.18;96143.88;10552036;28;1913;-85
2021/06/09 22:08:19;;;;;;;;;;;18.30;99.90;;;17.07;75.03;96141.69;10559651;28;2063;-86
2021/06/09 22:13:22;;;;;;;;;;;18.20;99.90;;;16.91;75.21;96138.50;10551313;28;2077;-86
2021/06/09 22:18:25;;;;;;;;;;;18.10;99.90;;;16.83;76.17;96142.72;10554743;28;1447;-86
2021/06/09 22:23:31;;;;;;;;;;;18.00;99.90;;;16.69;76.31;96134.59;10542618;28;1910;-85
2021/06/09 22:28:33;;;;;;;;;;;17.90;99.90;;;16.68;77.06;96135.69;10546067;28;1845;-85
2021/06/09 22:33:35;;;;;;;;;;;17.80;99.90;;;16.60;78.10;96133.66;10539719;28;2170;-85
2021/06/09 22:38:38;;;;;;;;;;;17.70;99.90;;;16.49;79.19;96127.66;10559533;28;1712;-84
2021/06/09 22:43:40;;;;;;;;;;;17.60;99.90;;;16.38;79.66;96139.03;10547076;28;2337;-83
2021/06/09 22:48:42;;;;;;;;;;;17.60;99.90;;;16.36;79.92;96150.19;10556735;28;2341;-86
2021/06/09 22:53:45;;;;;;;;;;;17.50;99.90;;;16.51;79.46;96145.56;10558774;28;1250;-81
2021/06/09 22:58:47;;;;;;;;;;;17.50;99.90;;;16.42;79.08;96145.47;10552179;28;1622;-85
2021/06/09 23:03:54;;;;;;;;;;;17.50;99.90;;;16.33;79.40;96136.41;10548445;28;1913;-85
2021/06/09 23:09:04;;;;;;;;;;;17.50;99.90;;;16.31;79.33;96138.63;10553690;28;2357;-83
2021/06/09 23:14:06;;;;;;;;;;;17.40;99.90;;;16.35;79.50;96128.75;10545807;28;2339;-85
2021/06/09 23:19:09;;;;;;;;;;;17.40;99.90;;;16.48;78.25;96133.41;10551823;28;1290;-87
2021/06/09 23:24:11;;;;;;;;;;;17.40;99.90;;;16.71;77.28;96137.81;10557786;28;2445;-85
2021/06/09 23:29:14;;;;;;;;;;;17.50;99.90;;;16.91;76.87;96138.50;10572992;28;2256;-84
2021/06/09 23:34:16;;;;;;;;;;;17.70;99.90;;;16.92;76.21;96134.66;10579138;28;2023;-83
2021/06/09 23:39:18;;;;;;;;;;;17.80;99.90;;;16.89;76.07;96133.38;10554696;28;1558;-85
2021/06/09 23:44:21;;;;;;;;;;;17.80;99.90;;;16.70;76.94;96130.00;10527243;28;2045;-84
2021/06/09 23:49:25;;;;;;;;;;;17.80;99.90;;;16.55;77.83;96125.66;10543456;28;2073;-84
2021/06/09 23:54:27;;;;;;;;;;;17.70;99.90;;;16.51;78.57;96118.41;10542920;28;2114;-85
2021/06/09 23:59:29;;;;;;;;;;;17.60;99.90;;;16.42;79.34;96115.63;10547649;28;1191;-85
